sensor_id;sensor_type;location;lat;lon;timestamp;P1;durP1;ratioP1;P2;durP2;ratioP2
2522;SDS011;1272;53.332;9.860;2022-10-12T00:01:32;5.17;;;3.70;;
2522;SDS011;1272;53.332;9.860;2022-10-12T00:03:58;6.90;;;3.40;;
2522;SDS011;1272;53.332;9.860;2022-10-12T00:06:23;4.70;;;3.20;;
2522;SDS011;1272;53.332;9.860;2022-10-12T00:08:50;5.27;;;3.00;;
2522;SDS011;1272;53.332;9.860;2022-10-12T00:11:18;3.50;;;2.73;;
2522;SDS011;1272;53.332;9.860;2022-10-12T00:13:45;3.20;;;2.83;;
2522;SDS011;1272;53.332;9.860;2022-10-12T00:16:14;4.10;;;3.13;;
2522;SDS011;1272;53.332;9.860;2022-10-12T00:18:41;4.37;;;3.13;;
2522;SDS011;1272;53.332;9.860;2022-10-12T00:21:13;7.73;;;2.70;;
2522;SDS011;1272;53.332;9.860;2022-10-12T00:23:41;2.50;;;2.40;;
2522;SDS011;1272;53.332;9.860;2022-10-12T00:26:12;2.57;;;1.97;;
2522;SDS011;1272;53.332;9.860;2022-10-12T00:28:40;7.67;;;2.90;;
2522;SDS011;1272;53.332;9.860;2022-10-12T00:31:10;7.30;;;2.90;;
2522;SDS011;1272;53.332;9.860;2022-10-12T00:33:38;4.00;;;2.40;;
2522;SDS011;1272;53.332;9.860;2022-10-12T00:36:21;3.83;;;2.30;;
2522;SDS011;1272;53.332;9.860;2022-10-12T00:38:49;7.73;;;2.40;;
2522;SDS011;1272;53.332;9.860;2022-10-12T00:41:16;3.13;;;2.60;;
2522;SDS011;1272;53.332;9.860;2022-10-12T00:43:44;3.27;;;2.77;;
2522;SDS011;1272;53.332;9.860;2022-10-12T00:49:13;3.30;;;2.47;;
2522;SDS011;1272;53.332;9.860;2022-10-12T00:52:07;3.50;;;2.97;;
2522;SDS011;1272;53.332;9.860;2022-10-12T00:54:36;2.80;;;1.93;;
2522;SDS011;1272;53.332;9.860;2022-10-12T00:57:05;7.90;;;3.10;;
2522;SDS011;1272;53.332;9.860;2022-10-12T00:59:38;3.00;;;2.20;;
2522;SDS011;1272;53.332;9.860;2022-10-12T01:02:08;5.20;;;2.33;;
2522;SDS011;1272;53.332;9.860;2022-10-12T01:04:33;4.13;;;2.60;;
2522;SDS011;1272;53.332;9.860;2022-10-12T01:07:00;2.43;;;1.93;;
2522;SDS011;1272;53.332;9.860;2022-10-12T01:09:26;3.33;;;2.40;;
2522;SDS011;1272;53.332;9.860;2022-10-12T01:11:54;6.63;;;2.40;;
2522;SDS011;1272;53.332;9.860;2022-10-12T01:14:21;4.73;;;2.27;;
2522;SDS011;1272;53.332;9.860;2022-10-12T01:17:08;5.87;;;2.87;;
2522;SDS011;1272;53.332;9.860;2022-10-12T01:22:22;3.93;;;2.80;;
2522;SDS011;1272;53.332;9.860;2022-10-12T01:32:51;3.37;;;2.50;;
2522;SDS011;1272;53.332;9.860;2022-10-12T01:35:41;2.63;;;2.20;;
2522;SDS011;1272;53.332;9.860;2022-10-12T01:40:50;2.83;;;1.83;;
2522;SDS011;1272;53.332;9.860;2022-10-12T01:43:39;7.77;;;2.20;;
2522;SDS011;1272;53.332;9.860;2022-10-12T01:48:45;6.23;;;2.17;;
2522;SDS011;1272;53.332;9.860;2022-10-12T01:51:16;6.70;;;2.37;;
2522;SDS011;1272;53.332;9.860;2022-10-12T01:53:51;2.67;;;2.17;;
2522;SDS011;1272;53.332;9.860;2022-10-12T01:56:41;2.63;;;1.97;;
2522;SDS011;1272;53.332;9.860;2022-10-12T01:59:19;3.03;;;2.50;;
2522;SDS011;1272;53.332;9.860;2022-10-12T02:10:43;6.80;;;2.37;;
2522;SDS011;1272;53.332;9.860;2022-10-12T02:13:25;6.00;;;3.23;;
2522;SDS011;1272;53.332;9.860;2022-10-12T02:15:54;3.10;;;2.20;;
2522;SDS011;1272;53.332;9.860;2022-10-12T02:18:23;4.93;;;2.80;;
2522;SDS011;1272;53.332;9.860;2022-10-12T02:20:50;5.60;;;2.87;;
2522;SDS011;1272;53.332;9.860;2022-10-12T02:23:18;2.63;;;2.50;;
2522;SDS011;1272;53.332;9.860;2022-10-12T02:25:47;7.40;;;2.60;;
2522;SDS011;1272;53.332;9.860;2022-10-12T02:28:15;2.57;;;2.00;;
2522;SDS011;1272;53.332;9.860;2022-10-12T02:30:50;3.00;;;2.30;;
2522;SDS011;1272;53.332;9.860;2022-10-12T02:35:55;4.07;;;2.17;;
2522;SDS011;1272;53.332;9.860;2022-10-12T02:38:37;3.43;;;2.30;;
2522;SDS011;1272;53.332;9.860;2022-10-12T02:41:08;3.33;;;2.40;;
2522;SDS011;1272;53.332;9.860;2022-10-12T02:43:41;5.67;;;2.17;;
2522;SDS011;1272;53.332;9.860;2022-10-12T02:46:13;4.50;;;2.30;;
2522;SDS011;1272;53.332;9.860;2022-10-12T02:48:41;5.47;;;2.30;;
2522;SDS011;1272;53.332;9.860;2022-10-12T02:51:10;3.83;;;2.50;;
2522;SDS011;1272;53.332;9.860;2022-10-12T02:53:36;3.50;;;2.43;;
2522;SDS011;1272;53.332;9.860;2022-10-12T02:56:06;5.97;;;2.27;;
2522;SDS011;1272;53.332;9.860;2022-10-12T02:58:36;4.83;;;1.93;;
2522;SDS011;1272;53.332;9.860;2022-10-12T03:01:02;4.00;;;2.77;;
2522;SDS011;1272;53.332;9.860;2022-10-12T03:03:28;3.13;;;2.63;;
2522;SDS011;1272;53.332;9.860;2022-10-12T03:05:54;3.50;;;2.57;;
2522;SDS011;1272;53.332;9.860;2022-10-12T03:08:20;2.97;;;2.73;;
2522;SDS011;1272;53.332;9.860;2022-10-12T03:10:46;4.03;;;2.73;;
2522;SDS011;1272;53.332;9.860;2022-10-12T03:13:11;5.20;;;2.70;;
2522;SDS011;1272;53.332;9.860;2022-10-12T03:15:37;2.23;;;2.13;;
2522;SDS011;1272;53.332;9.860;2022-10-12T03:18:03;4.67;;;2.37;;
2522;SDS011;1272;53.332;9.860;2022-10-12T03:20:28;6.27;;;3.20;;
2522;SDS011;1272;53.332;9.860;2022-10-12T03:22:54;7.07;;;3.07;;
2522;SDS011;1272;53.332;9.860;2022-10-12T03:25:19;4.50;;;3.23;;
2522;SDS011;1272;53.332;9.860;2022-10-12T03:27:45;4.70;;;3.13;;
2522;SDS011;1272;53.332;9.860;2022-10-12T03:30:11;3.07;;;2.70;;
2522;SDS011;1272;53.332;9.860;2022-10-12T03:32:37;3.23;;;2.93;;
2522;SDS011;1272;53.332;9.860;2022-10-12T03:35:04;5.47;;;2.73;;
2522;SDS011;1272;53.332;9.860;2022-10-12T03:37:30;4.60;;;2.90;;
2522;SDS011;1272;53.332;9.860;2022-10-12T03:39:56;3.67;;;3.20;;
2522;SDS011;1272;53.332;9.860;2022-10-12T03:42:22;3.47;;;2.73;;
2522;SDS011;1272;53.332;9.860;2022-10-12T03:44:47;3.83;;;2.23;;
2522;SDS011;1272;53.332;9.860;2022-10-12T03:47:13;4.33;;;2.87;;
2522;SDS011;1272;53.332;9.860;2022-10-12T03:49:38;3.73;;;3.37;;
2522;SDS011;1272;53.332;9.860;2022-10-12T03:52:04;4.33;;;2.70;;
2522;SDS011;1272;53.332;9.860;2022-10-12T03:54:30;4.97;;;3.03;;
2522;SDS011;1272;53.332;9.860;2022-10-12T03:56:56;5.67;;;3.30;;
2522;SDS011;1272;53.332;9.860;2022-10-12T03:59:21;3.93;;;2.60;;
2522;SDS011;1272;53.332;9.860;2022-10-12T04:01:47;4.50;;;2.97;;
2522;SDS011;1272;53.332;9.860;2022-10-12T04:04:13;5.30;;;2.23;;
2522;SDS011;1272;53.332;9.860;2022-10-12T04:06:38;3.57;;;2.87;;
2522;SDS011;1272;53.332;9.860;2022-10-12T04:09:04;5.40;;;2.33;;
2522;SDS011;1272;53.332;9.860;2022-10-12T04:11:29;6.20;;;2.57;;
2522;SDS011;1272;53.332;9.860;2022-10-12T04:13:55;4.17;;;2.57;;
2522;SDS011;1272;53.332;9.860;2022-10-12T04:16:21;3.07;;;2.20;;
2522;SDS011;1272;53.332;9.860;2022-10-12T04:18:46;2.80;;;2.60;;
2522;SDS011;1272;53.332;9.860;2022-10-12T04:21:13;5.17;;;2.93;;
2522;SDS011;1272;53.332;9.860;2022-10-12T04:23:40;3.00;;;2.70;;
2522;SDS011;1272;53.332;9.860;2022-10-12T04:26:06;3.03;;;2.47;;
2522;SDS011;1272;53.332;9.860;2022-10-12T04:28:32;4.20;;;3.10;;
2522;SDS011;1272;53.332;9.860;2022-10-12T04:30:58;6.50;;;2.67;;
2522;SDS011;1272;53.332;9.860;2022-10-12T04:33:24;3.90;;;2.60;;
2522;SDS011;1272;53.332;9.860;2022-10-12T04:35:49;6.13;;;2.57;;
2522;SDS011;1272;53.332;9.860;2022-10-12T04:38:15;4.07;;;3.27;;
2522;SDS011;1272;53.332;9.860;2022-10-12T04:40:44;8.60;;;6.57;;
2522;SDS011;1272;53.332;9.860;2022-10-12T04:43:14;7.20;;;6.40;;
2522;SDS011;1272;53.332;9.860;2022-10-12T04:45:40;7.53;;;6.20;;
2522;SDS011;1272;53.332;9.860;2022-10-12T04:48:06;6.53;;;3.70;;
2522;SDS011;1272;53.332;9.860;2022-10-12T04:50:32;3.33;;;3.10;;
2522;SDS011;1272;53.332;9.860;2022-10-12T04:52:58;3.57;;;3.13;;
2522;SDS011;1272;53.332;9.860;2022-10-12T04:55:23;3.00;;;2.70;;
2522;SDS011;1272;53.332;9.860;2022-10-12T04:57:52;3.13;;;2.83;;
2522;SDS011;1272;53.332;9.860;2022-10-12T05:00:17;5.07;;;3.40;;
2522;SDS011;1272;53.332;9.860;2022-10-12T05:02:43;7.80;;;2.50;;
2522;SDS011;1272;53.332;9.860;2022-10-12T05:05:09;4.53;;;3.10;;
2522;SDS011;1272;53.332;9.860;2022-10-12T05:07:34;3.70;;;2.90;;
2522;SDS011;1272;53.332;9.860;2022-10-12T05:10:00;6.07;;;3.20;;
2522;SDS011;1272;53.332;9.860;2022-10-12T05:12:26;3.27;;;2.70;;
2522;SDS011;1272;53.332;9.860;2022-10-12T05:14:51;5.53;;;3.53;;
2522;SDS011;1272;53.332;9.860;2022-10-12T05:17:17;4.43;;;2.70;;
2522;SDS011;1272;53.332;9.860;2022-10-12T05:19:43;2.60;;;2.33;;
2522;SDS011;1272;53.332;9.860;2022-10-12T05:22:08;4.63;;;4.13;;
2522;SDS011;1272;53.332;9.860;2022-10-12T05:24:34;3.20;;;3.00;;
2522;SDS011;1272;53.332;9.860;2022-10-12T05:27:00;5.60;;;3.10;;
2522;SDS011;1272;53.332;9.860;2022-10-12T05:29:27;3.23;;;2.93;;
2522;SDS011;1272;53.332;9.860;2022-10-12T05:31:52;7.37;;;3.87;;
2522;SDS011;1272;53.332;9.860;2022-10-12T05:34:18;6.90;;;3.00;;
2522;SDS011;1272;53.332;9.860;2022-10-12T05:36:44;3.77;;;3.27;;
2522;SDS011;1272;53.332;9.860;2022-10-12T05:39:10;5.97;;;3.23;;
2522;SDS011;1272;53.332;9.860;2022-10-12T05:41:35;3.40;;;3.10;;
2522;SDS011;1272;53.332;9.860;2022-10-12T05:44:01;3.10;;;2.70;;
2522;SDS011;1272;53.332;9.860;2022-10-12T05:46:27;5.90;;;2.90;;
2522;SDS011;1272;53.332;9.860;2022-10-12T05:48:52;6.30;;;3.00;;
2522;SDS011;1272;53.332;9.860;2022-10-12T05:51:18;3.90;;;2.93;;
2522;SDS011;1272;53.332;9.860;2022-10-12T05:53:44;3.13;;;2.90;;
2522;SDS011;1272;53.332;9.860;2022-10-12T05:56:09;3.50;;;3.23;;
2522;SDS011;1272;53.332;9.860;2022-10-12T05:58:35;6.13;;;3.00;;
2522;SDS011;1272;53.332;9.860;2022-10-12T06:01:04;3.83;;;3.20;;
2522;SDS011;1272;53.332;9.860;2022-10-12T06:03:31;3.00;;;2.80;;
2522;SDS011;1272;53.332;9.860;2022-10-12T06:05:57;3.90;;;3.57;;
2522;SDS011;1272;53.332;9.860;2022-10-12T06:08:23;6.10;;;3.13;;
2522;SDS011;1272;53.332;9.860;2022-10-12T06:10:49;3.97;;;3.20;;
2522;SDS011;1272;53.332;9.860;2022-10-12T06:13:16;4.63;;;3.37;;
2522;SDS011;1272;53.332;9.860;2022-10-12T06:15:44;3.83;;;3.10;;
2522;SDS011;1272;53.332;9.860;2022-10-12T06:18:10;5.70;;;3.20;;
2522;SDS011;1272;53.332;9.860;2022-10-12T06:20:37;4.57;;;3.30;;
2522;SDS011;1272;53.332;9.860;2022-10-12T06:23:02;5.60;;;3.43;;
2522;SDS011;1272;53.332;9.860;2022-10-12T06:25:28;4.00;;;3.60;;
2522;SDS011;1272;53.332;9.860;2022-10-12T06:27:54;7.80;;;3.93;;
2522;SDS011;1272;53.332;9.860;2022-10-12T06:30:19;6.73;;;4.40;;
2522;SDS011;1272;53.332;9.860;2022-10-12T06:32:45;4.80;;;3.53;;
2522;SDS011;1272;53.332;9.860;2022-10-12T06:35:11;5.83;;;4.37;;
2522;SDS011;1272;53.332;9.860;2022-10-12T06:37:36;9.23;;;4.73;;
2522;SDS011;1272;53.332;9.860;2022-10-12T06:40:02;4.83;;;4.23;;
2522;SDS011;1272;53.332;9.860;2022-10-12T06:42:29;4.33;;;3.90;;
2522;SDS011;1272;53.332;9.860;2022-10-12T06:44:55;4.43;;;4.13;;
2522;SDS011;1272;53.332;9.860;2022-10-12T06:47:21;5.20;;;3.70;;
2522;SDS011;1272;53.332;9.860;2022-10-12T06:49:47;4.40;;;4.07;;
2522;SDS011;1272;53.332;9.860;2022-10-12T06:52:12;4.10;;;3.80;;
2522;SDS011;1272;53.332;9.860;2022-10-12T06:54:38;6.03;;;3.93;;
2522;SDS011;1272;53.332;9.860;2022-10-12T06:57:05;7.00;;;3.90;;
2522;SDS011;1272;53.332;9.860;2022-10-12T06:59:30;6.90;;;3.43;;
2522;SDS011;1272;53.332;9.860;2022-10-12T07:01:56;3.57;;;3.27;;
2522;SDS011;1272;53.332;9.860;2022-10-12T07:04:22;4.87;;;3.40;;
2522;SDS011;1272;53.332;9.860;2022-10-12T07:06:47;7.13;;;3.90;;
2522;SDS011;1272;53.332;9.860;2022-10-12T07:09:13;4.33;;;3.93;;
2522;SDS011;1272;53.332;9.860;2022-10-12T07:11:41;3.70;;;3.50;;
2522;SDS011;1272;53.332;9.860;2022-10-12T07:14:06;9.43;;;4.03;;
2522;SDS011;1272;53.332;9.860;2022-10-12T07:16:32;5.90;;;4.30;;
2522;SDS011;1272;53.332;9.860;2022-10-12T07:18:58;5.10;;;3.73;;
2522;SDS011;1272;53.332;9.860;2022-10-12T07:21:24;4.23;;;3.23;;
2522;SDS011;1272;53.332;9.860;2022-10-12T07:23:49;5.67;;;3.60;;
2522;SDS011;1272;53.332;9.860;2022-10-12T07:26:16;3.70;;;3.40;;
2522;SDS011;1272;53.332;9.860;2022-10-12T07:28:41;5.50;;;3.57;;
2522;SDS011;1272;53.332;9.860;2022-10-12T07:31:07;11.10;;;3.90;;
2522;SDS011;1272;53.332;9.860;2022-10-12T07:33:34;7.10;;;3.50;;
2522;SDS011;1272;53.332;9.860;2022-10-12T07:36:03;9.40;;;3.70;;
2522;SDS011;1272;53.332;9.860;2022-10-12T07:38:29;4.03;;;3.50;;
2522;SDS011;1272;53.332;9.860;2022-10-12T07:41:01;6.43;;;3.80;;
2522;SDS011;1272;53.332;9.860;2022-10-12T07:43:28;5.73;;;3.20;;
2522;SDS011;1272;53.332;9.860;2022-10-12T07:45:54;5.53;;;3.50;;
2522;SDS011;1272;53.332;9.860;2022-10-12T07:48:21;7.50;;;3.40;;
2522;SDS011;1272;53.332;9.860;2022-10-12T07:50:47;6.90;;;3.67;;
2522;SDS011;1272;53.332;9.860;2022-10-12T07:53:12;5.77;;;3.23;;
2522;SDS011;1272;53.332;9.860;2022-10-12T07:55:38;6.93;;;3.40;;
2522;SDS011;1272;53.332;9.860;2022-10-12T07:58:04;9.13;;;3.70;;
2522;SDS011;1272;53.332;9.860;2022-10-12T08:00:30;6.13;;;3.50;;
2522;SDS011;1272;53.332;9.860;2022-10-12T08:02:56;6.53;;;3.83;;
2522;SDS011;1272;53.332;9.860;2022-10-12T08:05:24;8.33;;;3.97;;
2522;SDS011;1272;53.332;9.860;2022-10-12T08:07:51;10.97;;;3.73;;
2522;SDS011;1272;53.332;9.860;2022-10-12T08:10:17;4.43;;;2.60;;
2522;SDS011;1272;53.332;9.860;2022-10-12T08:12:44;11.10;;;5.00;;
2522;SDS011;1272;53.332;9.860;2022-10-12T08:15:11;8.80;;;3.90;;
2522;SDS011;1272;53.332;9.860;2022-10-12T08:17:37;9.60;;;3.80;;
2522;SDS011;1272;53.332;9.860;2022-10-12T08:20:04;8.83;;;3.20;;
2522;SDS011;1272;53.332;9.860;2022-10-12T08:22:30;9.43;;;3.30;;
2522;SDS011;1272;53.332;9.860;2022-10-12T08:24:56;8.50;;;3.03;;
2522;SDS011;1272;53.332;9.860;2022-10-12T08:27:21;9.10;;;2.93;;
2522;SDS011;1272;53.332;9.860;2022-10-12T08:29:47;6.50;;;3.37;;
2522;SDS011;1272;53.332;9.860;2022-10-12T08:32:12;6.27;;;2.70;;
2522;SDS011;1272;53.332;9.860;2022-10-12T08:34:38;10.40;;;3.03;;
2522;SDS011;1272;53.332;9.860;2022-10-12T08:37:04;5.80;;;2.80;;
2522;SDS011;1272;53.332;9.860;2022-10-12T08:39:29;6.50;;;3.00;;
2522;SDS011;1272;53.332;9.860;2022-10-12T08:47:51;4.77;;;2.50;;
2522;SDS011;1272;53.332;9.860;2022-10-12T08:50:31;13.30;;;3.47;;
2522;SDS011;1272;53.332;9.860;2022-10-12T08:53:01;9.77;;;2.80;;
2522;SDS011;1272;53.332;9.860;2022-10-12T08:55:51;8.27;;;2.87;;
2522;SDS011;1272;53.332;9.860;2022-10-12T08:58:18;7.50;;;2.30;;
2522;SDS011;1272;53.332;9.860;2022-10-12T09:00:56;11.23;;;2.60;;
2522;SDS011;1272;53.332;9.860;2022-10-12T09:03:49;4.03;;;2.63;;
2522;SDS011;1272;53.332;9.860;2022-10-12T09:06:34;6.87;;;2.50;;
2522;SDS011;1272;53.332;9.860;2022-10-12T09:15:32;4.53;;;2.17;;
2522;SDS011;1272;53.332;9.860;2022-10-12T09:18:01;4.13;;;2.20;;
2522;SDS011;1272;53.332;9.860;2022-10-12T09:20:41;8.80;;;2.40;;
2522;SDS011;1272;53.332;9.860;2022-10-12T09:23:23;4.07;;;2.03;;
2522;SDS011;1272;53.332;9.860;2022-10-12T09:25:57;8.00;;;2.90;;
2522;SDS011;1272;53.332;9.860;2022-10-12T09:28:40;5.33;;;2.43;;
2522;SDS011;1272;53.332;9.860;2022-10-12T09:33:41;8.00;;;2.53;;
2522;SDS011;1272;53.332;9.860;2022-10-12T09:36:14;3.70;;;2.07;;
2522;SDS011;1272;53.332;9.860;2022-10-12T09:38:43;8.57;;;2.30;;
2522;SDS011;1272;53.332;9.860;2022-10-12T09:41:16;4.23;;;1.63;;
2522;SDS011;1272;53.332;9.860;2022-10-12T09:43:50;7.27;;;1.70;;
2522;SDS011;1272;53.332;9.860;2022-10-12T09:47:02;6.50;;;1.80;;
2522;SDS011;1272;53.332;9.860;2022-10-12T09:49:15;5.23;;;2.60;;
2522;SDS011;1272;53.332;9.860;2022-10-12T09:51:40;5.40;;;1.83;;
2522;SDS011;1272;53.332;9.860;2022-10-12T09:54:06;6.00;;;2.43;;
2522;SDS011;1272;53.332;9.860;2022-10-12T09:56:52;5.03;;;1.57;;
2522;SDS011;1272;53.332;9.860;2022-10-12T09:59:22;8.00;;;1.97;;
2522;SDS011;1272;53.332;9.860;2022-10-12T10:04:35;5.80;;;1.87;;
2522;SDS011;1272;53.332;9.860;2022-10-12T10:09:46;3.73;;;1.50;;
2522;SDS011;1272;53.332;9.860;2022-10-12T10:12:26;5.10;;;1.93;;
2522;SDS011;1272;53.332;9.860;2022-10-12T10:14:54;3.70;;;1.77;;
2522;SDS011;1272;53.332;9.860;2022-10-12T10:17:25;4.03;;;2.00;;
2522;SDS011;1272;53.332;9.860;2022-10-12T10:19:59;8.90;;;2.37;;
2522;SDS011;1272;53.332;9.860;2022-10-12T10:22:29;10.33;;;2.90;;
2522;SDS011;1272;53.332;9.860;2022-10-12T10:24:56;4.00;;;1.90;;
2522;SDS011;1272;53.332;9.860;2022-10-12T10:32:43;8.57;;;3.00;;
2522;SDS011;1272;53.332;9.860;2022-10-12T10:37:35;8.17;;;2.13;;
2522;SDS011;1272;53.332;9.860;2022-10-12T10:40:06;6.00;;;2.17;;
2522;SDS011;1272;53.332;9.860;2022-10-12T10:42:40;7.17;;;2.83;;
2522;SDS011;1272;53.332;9.860;2022-10-12T10:45:06;5.83;;;2.50;;
2522;SDS011;1272;53.332;9.860;2022-10-12T10:47:44;8.63;;;2.77;;
2522;SDS011;1272;53.332;9.860;2022-10-12T10:53:13;5.30;;;2.13;;
2522;SDS011;1272;53.332;9.860;2022-10-12T10:55:58;4.60;;;2.90;;
2522;SDS011;1272;53.332;9.860;2022-10-12T10:58:47;5.33;;;1.93;;
2522;SDS011;1272;53.332;9.860;2022-10-12T11:01:21;4.63;;;2.33;;
2522;SDS011;1272;53.332;9.860;2022-10-12T11:06:37;6.20;;;2.60;;
2522;SDS011;1272;53.332;9.860;2022-10-12T11:09:13;3.03;;;1.90;;
2522;SDS011;1272;53.332;9.860;2022-10-12T11:11:43;6.00;;;1.90;;
2522;SDS011;1272;53.332;9.860;2022-10-12T11:14:13;4.47;;;1.93;;
2522;SDS011;1272;53.332;9.860;2022-10-12T11:16:58;8.43;;;2.13;;
2522;SDS011;1272;53.332;9.860;2022-10-12T11:19:41;5.80;;;1.83;;
2522;SDS011;1272;53.332;9.860;2022-10-12T11:24:42;5.30;;;2.30;;
2522;SDS011;1272;53.332;9.860;2022-10-12T11:27:25;8.20;;;1.80;;
2522;SDS011;1272;53.332;9.860;2022-10-12T11:29:59;5.50;;;2.20;;
2522;SDS011;1272;53.332;9.860;2022-10-12T11:32:28;6.70;;;2.20;;
2522;SDS011;1272;53.332;9.860;2022-10-12T11:35:00;3.90;;;1.97;;
2522;SDS011;1272;53.332;9.860;2022-10-12T11:37:35;3.53;;;2.70;;
2522;SDS011;1272;53.332;9.860;2022-10-12T11:40:05;7.77;;;2.13;;
2522;SDS011;1272;53.332;9.860;2022-10-12T11:42:40;6.40;;;2.87;;
2522;SDS011;1272;53.332;9.860;2022-10-12T11:45:14;3.10;;;1.60;;
2522;SDS011;1272;53.332;9.860;2022-10-12T11:48:10;4.77;;;1.87;;
2522;SDS011;1272;53.332;9.860;2022-10-12T11:50:43;9.13;;;1.70;;
2522;SDS011;1272;53.332;9.860;2022-10-12T11:53:33;5.53;;;1.63;;
2522;SDS011;1272;53.332;9.860;2022-10-12T11:56:26;4.90;;;1.93;;
2522;SDS011;1272;53.332;9.860;2022-10-12T12:02:15;5.80;;;2.10;;
2522;SDS011;1272;53.332;9.860;2022-10-12T12:04:45;5.63;;;1.77;;
2522;SDS011;1272;53.332;9.860;2022-10-12T12:15:32;8.23;;;2.00;;
2522;SDS011;1272;53.332;9.860;2022-10-12T12:18:08;5.80;;;1.90;;
2522;SDS011;1272;53.332;9.860;2022-10-12T12:23:19;9.60;;;1.93;;
2522;SDS011;1272;53.332;9.860;2022-10-12T12:28:35;3.63;;;2.00;;
2522;SDS011;1272;53.332;9.860;2022-10-12T12:33:46;5.27;;;1.70;;
2522;SDS011;1272;53.332;9.860;2022-10-12T12:39:04;5.00;;;1.87;;
2522;SDS011;1272;53.332;9.860;2022-10-12T12:49:59;3.23;;;1.50;;
2522;SDS011;1272;53.332;9.860;2022-10-12T12:52:27;4.73;;;1.80;;
2522;SDS011;1272;53.332;9.860;2022-10-12T13:15:23;5.77;;;1.63;;
2522;SDS011;1272;53.332;9.860;2022-10-12T13:18:05;3.43;;;1.97;;
2522;SDS011;1272;53.332;9.860;2022-10-12T13:20:48;7.30;;;2.00;;
2522;SDS011;1272;53.332;9.860;2022-10-12T13:23:22;6.00;;;1.53;;
2522;SDS011;1272;53.332;9.860;2022-10-12T13:25:56;4.73;;;1.90;;
2522;SDS011;1272;53.332;9.860;2022-10-12T13:28:27;6.70;;;2.60;;
2522;SDS011;1272;53.332;9.860;2022-10-12T13:36:16;6.13;;;2.03;;
2522;SDS011;1272;53.332;9.860;2022-10-12T13:38:52;5.13;;;1.60;;
2522;SDS011;1272;53.332;9.860;2022-10-12T13:41:31;4.10;;;1.77;;
2522;SDS011;1272;53.332;9.860;2022-10-12T13:43:59;2.17;;;1.87;;
2522;SDS011;1272;53.332;9.860;2022-10-12T13:46:35;3.63;;;1.67;;
2522;SDS011;1272;53.332;9.860;2022-10-12T13:49:47;7.47;;;1.80;;
2522;SDS011;1272;53.332;9.860;2022-10-12T13:52:08;4.33;;;1.73;;
2522;SDS011;1272;53.332;9.860;2022-10-12T13:54:47;6.93;;;1.97;;
2522;SDS011;1272;53.332;9.860;2022-10-12T14:00:07;2.27;;;1.50;;
2522;SDS011;1272;53.332;9.860;2022-10-12T14:02:59;2.30;;;1.30;;
2522;SDS011;1272;53.332;9.860;2022-10-12T14:05:27;5.23;;;1.63;;
2522;SDS011;1272;53.332;9.860;2022-10-12T14:07:56;5.83;;;1.70;;
2522;SDS011;1272;53.332;9.860;2022-10-12T14:10:39;3.50;;;1.97;;
2522;SDS011;1272;53.332;9.860;2022-10-12T14:13:10;5.63;;;1.70;;
2522;SDS011;1272;53.332;9.860;2022-10-12T14:15:38;2.70;;;1.63;;
2522;SDS011;1272;53.332;9.860;2022-10-12T14:24:06;4.17;;;2.10;;
2522;SDS011;1272;53.332;9.860;2022-10-12T14:26:39;5.80;;;2.23;;
2522;SDS011;1272;53.332;9.860;2022-10-12T14:31:54;5.13;;;1.73;;
2522;SDS011;1272;53.332;9.860;2022-10-12T14:34:22;5.27;;;1.90;;
2522;SDS011;1272;53.332;9.860;2022-10-12T14:37:01;3.67;;;1.63;;
2522;SDS011;1272;53.332;9.860;2022-10-12T14:39:33;6.50;;;1.93;;
2522;SDS011;1272;53.332;9.860;2022-10-12T14:42:03;2.93;;;1.27;;
2522;SDS011;1272;53.332;9.860;2022-10-12T14:44:48;6.90;;;1.83;;
2522;SDS011;1272;53.332;9.860;2022-10-12T14:47:25;2.80;;;1.50;;
2522;SDS011;1272;53.332;9.860;2022-10-12T14:49:53;6.03;;;1.77;;
2522;SDS011;1272;53.332;9.860;2022-10-12T14:52:42;5.57;;;1.97;;
2522;SDS011;1272;53.332;9.860;2022-10-12T14:55:12;5.80;;;1.70;;
2522;SDS011;1272;53.332;9.860;2022-10-12T14:57:38;5.27;;;1.77;;
2522;SDS011;1272;53.332;9.860;2022-10-12T15:00:04;3.00;;;1.80;;
2522;SDS011;1272;53.332;9.860;2022-10-12T15:02:31;5.10;;;1.40;;
2522;SDS011;1272;53.332;9.860;2022-10-12T15:04:58;5.23;;;1.87;;
2522;SDS011;1272;53.332;9.860;2022-10-12T15:07:31;5.90;;;1.53;;
2522;SDS011;1272;53.332;9.860;2022-10-12T15:09:58;5.63;;;1.83;;
2522;SDS011;1272;53.332;9.860;2022-10-12T15:12:25;7.00;;;1.70;;
2522;SDS011;1272;53.332;9.860;2022-10-12T15:14:52;6.00;;;1.90;;
2522;SDS011;1272;53.332;9.860;2022-10-12T15:17:20;7.10;;;2.30;;
2522;SDS011;1272;53.332;9.860;2022-10-12T15:19:47;1.93;;;1.50;;
2522;SDS011;1272;53.332;9.860;2022-10-12T15:22:18;4.13;;;1.77;;
2522;SDS011;1272;53.332;9.860;2022-10-12T15:24:49;2.90;;;1.57;;
2522;SDS011;1272;53.332;9.860;2022-10-12T15:27:16;7.70;;;1.53;;
2522;SDS011;1272;53.332;9.860;2022-10-12T15:29:44;3.77;;;2.07;;
2522;SDS011;1272;53.332;9.860;2022-10-12T15:32:12;2.77;;;1.70;;
2522;SDS011;1272;53.332;9.860;2022-10-12T15:34:40;2.63;;;1.60;;
2522;SDS011;1272;53.332;9.860;2022-10-12T15:37:06;3.83;;;1.43;;
2522;SDS011;1272;53.332;9.860;2022-10-12T15:39:31;2.60;;;1.30;;
2522;SDS011;1272;53.332;9.860;2022-10-12T15:41:57;3.37;;;1.60;;
2522;SDS011;1272;53.332;9.860;2022-10-12T15:44:23;6.70;;;2.17;;
2522;SDS011;1272;53.332;9.860;2022-10-12T15:46:50;7.90;;;1.87;;
2522;SDS011;1272;53.332;9.860;2022-10-12T15:49:17;2.63;;;1.70;;
2522;SDS011;1272;53.332;9.860;2022-10-12T15:51:48;5.17;;;2.90;;
2522;SDS011;1272;53.332;9.860;2022-10-12T15:54:15;2.33;;;2.13;;
2522;SDS011;1272;53.332;9.860;2022-10-12T15:56:42;3.80;;;2.27;;
2522;SDS011;1272;53.332;9.860;2022-10-12T15:59:07;3.70;;;2.37;;
2522;SDS011;1272;53.332;9.860;2022-10-12T16:01:34;5.00;;;2.20;;
2522;SDS011;1272;53.332;9.860;2022-10-12T16:04:01;7.23;;;2.40;;
2522;SDS011;1272;53.332;9.860;2022-10-12T16:06:28;5.40;;;2.13;;
2522;SDS011;1272;53.332;9.860;2022-10-12T16:08:56;3.47;;;2.43;;
2522;SDS011;1272;53.332;9.860;2022-10-12T16:11:22;4.50;;;2.10;;
2522;SDS011;1272;53.332;9.860;2022-10-12T16:13:48;5.47;;;2.17;;
2522;SDS011;1272;53.332;9.860;2022-10-12T16:16:15;4.13;;;1.90;;
2522;SDS011;1272;53.332;9.860;2022-10-12T16:18:41;3.87;;;2.00;;
2522;SDS011;1272;53.332;9.860;2022-10-12T16:21:07;3.73;;;2.00;;
2522;SDS011;1272;53.332;9.860;2022-10-12T16:23:34;4.13;;;2.60;;
2522;SDS011;1272;53.332;9.860;2022-10-12T16:26:02;5.87;;;2.40;;
2522;SDS011;1272;53.332;9.860;2022-10-12T16:28:29;5.07;;;2.60;;
2522;SDS011;1272;53.332;9.860;2022-10-12T16:30:55;4.10;;;2.87;;
2522;SDS011;1272;53.332;9.860;2022-10-12T16:33:21;6.30;;;2.50;;
2522;SDS011;1272;53.332;9.860;2022-10-12T16:35:46;10.60;;;3.07;;
2522;SDS011;1272;53.332;9.860;2022-10-12T16:38:12;5.03;;;2.63;;
2522;SDS011;1272;53.332;9.860;2022-10-12T16:40:41;3.13;;;2.73;;
2522;SDS011;1272;53.332;9.860;2022-10-12T16:43:07;4.93;;;3.30;;
2522;SDS011;1272;53.332;9.860;2022-10-12T16:45:33;6.67;;;5.77;;
2522;SDS011;1272;53.332;9.860;2022-10-12T16:47:59;7.00;;;5.80;;
2522;SDS011;1272;53.332;9.860;2022-10-12T16:50:25;6.37;;;5.70;;
2522;SDS011;1272;53.332;9.860;2022-10-12T16:52:51;4.37;;;3.97;;
2522;SDS011;1272;53.332;9.860;2022-10-12T16:55:17;13.20;;;4.40;;
2522;SDS011;1272;53.332;9.860;2022-10-12T16:57:43;4.90;;;3.50;;
2522;SDS011;1272;53.332;9.860;2022-10-12T17:00:10;4.40;;;3.30;;
2522;SDS011;1272;53.332;9.860;2022-10-12T17:02:39;5.00;;;3.20;;
2522;SDS011;1272;53.332;9.860;2022-10-12T17:05:05;3.20;;;2.90;;
2522;SDS011;1272;53.332;9.860;2022-10-12T17:07:31;7.47;;;3.97;;
2522;SDS011;1272;53.332;9.860;2022-10-12T17:09:57;6.70;;;3.30;;
2522;SDS011;1272;53.332;9.860;2022-10-12T17:12:23;5.83;;;3.67;;
2522;SDS011;1272;53.332;9.860;2022-10-12T17:14:49;5.53;;;3.07;;
2522;SDS011;1272;53.332;9.860;2022-10-12T17:17:20;4.53;;;3.40;;
2522;SDS011;1272;53.332;9.860;2022-10-12T17:19:45;4.67;;;3.27;;
2522;SDS011;1272;53.332;9.860;2022-10-12T17:22:11;5.23;;;3.23;;
2522;SDS011;1272;53.332;9.860;2022-10-12T17:24:39;6.77;;;3.50;;
2522;SDS011;1272;53.332;9.860;2022-10-12T17:27:10;5.73;;;3.10;;
2522;SDS011;1272;53.332;9.860;2022-10-12T17:29:36;6.70;;;4.07;;
2522;SDS011;1272;53.332;9.860;2022-10-12T17:32:05;9.10;;;4.50;;
2522;SDS011;1272;53.332;9.860;2022-10-12T17:34:34;5.10;;;4.57;;
2522;SDS011;1272;53.332;9.860;2022-10-12T17:37:02;6.70;;;5.57;;
2522;SDS011;1272;53.332;9.860;2022-10-12T17:39:28;6.27;;;4.30;;
2522;SDS011;1272;53.332;9.860;2022-10-12T17:41:57;7.83;;;4.57;;
2522;SDS011;1272;53.332;9.860;2022-10-12T17:44:23;6.67;;;5.40;;